sensor_id;sensor_type;location;lat;lon;timestamp;pressure;altitude;pressure_sealevel;temperature;humidity
37291;BME280;23175;-33.706;151.094;2023-02-03T00:00:37;97838.13;;;22.72;26.34
37291;BME280;23175;-33.706;151.094;2023-02-03T00:03:06;97833.76;;;24.65;24.71
37291;BME280;23175;-33.706;151.094;2023-02-03T00:05:36;97835.30;;;22.14;27.31
37291;BME280;23175;-33.706;151.094;2023-02-03T00:08:07;97839.79;;;20.40;28.83
37291;BME280;23175;-33.706;151.094;2023-02-03T00:10:38;97838.29;;;21.55;27.43
37291;BME280;23175;-33.706;151.094;2023-02-03T00:13:08;97843.54;;;21.86;28.32
37291;BME280;23175;-33.706;151.094;2023-02-03T00:15:37;97845.45;;;19.77;28.90
37291;BME280;23175;-33.706;151.094;2023-02-03T00:18:06;97842.40;;;24.01;25.58
37291;BME280;23175;-33.706;151.094;2023-02-03T00:20:36;97838.87;;;21.84;27.07
37291;BME280;23175;-33.706;151.094;2023-02-03T00:23:06;97830.23;;;25.24;23.95
37291;BME280;23175;-33.706;151.094;2023-02-03T00:25:36;97828.62;;;26.03;23.42
37291;BME280;23175;-33.706;151.094;2023-02-03T00:28:06;97828.21;;;21.38;27.21
37291;BME280;23175;-33.706;151.094;2023-02-03T00:30:36;97825.68;;;22.22;27.77
37291;BME280;23175;-33.706;151.094;2023-02-03T00:33:06;97832.03;;;19.57;31.20
37291;BME280;23175;-33.706;151.094;2023-02-03T00:35:38;97828.07;;;22.79;27.60
37291;BME280;23175;-33.706;151.094;2023-02-03T00:38:07;97829.56;;;22.75;27.89
37291;BME280;23175;-33.706;151.094;2023-02-03T00:40:36;97837.81;;;22.50;29.59
37291;BME280;23175;-33.706;151.094;2023-02-03T00:43:05;97831.40;;;22.79;27.44
37291;BME280;23175;-33.706;151.094;2023-02-03T00:45:34;97826.08;;;22.58;27.84
37291;BME280;23175;-33.706;151.094;2023-02-03T00:48:03;97823.98;;;22.05;27.59
37291;BME280;23175;-33.706;151.094;2023-02-03T00:50:32;97824.68;;;22.94;27.48
37291;BME280;23175;-33.706;151.094;2023-02-03T00:53:02;97816.59;;;19.35;30.38
37291;BME280;23175;-33.706;151.094;2023-02-03T00:55:32;97812.67;;;19.82;30.70
37291;BME280;23175;-33.706;151.094;2023-02-03T00:58:01;97821.84;;;22.30;29.93
37291;BME280;23175;-33.706;151.094;2023-02-03T01:00:30;97818.35;;;21.87;29.78
37291;BME280;23175;-33.706;151.094;2023-02-03T01:02:59;97815.24;;;21.45;29.48
37291;BME280;23175;-33.706;151.094;2023-02-03T01:05:28;97813.21;;;22.75;28.19
37291;BME280;23175;-33.706;151.094;2023-02-03T01:07:59;97811.90;;;20.33;30.79
37291;BME280;23175;-33.706;151.094;2023-02-03T01:10:29;97812.66;;;22.51;28.84
37291;BME280;23175;-33.706;151.094;2023-02-03T01:12:59;97812.10;;;23.16;27.32
37291;BME280;23175;-33.706;151.094;2023-02-03T01:15:27;97805.52;;;23.19;27.97
37291;BME280;23175;-33.706;151.094;2023-02-03T01:17:57;97804.60;;;22.18;29.27
37291;BME280;23175;-33.706;151.094;2023-02-03T01:20:27;97805.72;;;21.64;29.64
37291;BME280;23175;-33.706;151.094;2023-02-03T01:22:57;97804.73;;;22.98;29.50
37291;BME280;23175;-33.706;151.094;2023-02-03T01:25:27;97810.77;;;23.06;29.54
37291;BME280;23175;-33.706;151.094;2023-02-03T01:27:56;97804.44;;;22.20;28.92
37291;BME280;23175;-33.706;151.094;2023-02-03T01:30:26;97799.87;;;22.45;28.77
37291;BME280;23175;-33.706;151.094;2023-02-03T01:32:55;97795.47;;;22.17;29.15
37291;BME280;23175;-33.706;151.094;2023-02-03T01:35:25;97795.54;;;22.16;30.29
37291;BME280;23175;-33.706;151.094;2023-02-03T01:37:54;97782.61;;;22.63;27.67
37291;BME280;23175;-33.706;151.094;2023-02-03T01:40:24;97784.81;;;22.82;28.22
37291;BME280;23175;-33.706;151.094;2023-02-03T01:42:53;97785.80;;;22.20;29.06
37291;BME280;23175;-33.706;151.094;2023-02-03T01:45:22;97783.93;;;23.29;28.57
37291;BME280;23175;-33.706;151.094;2023-02-03T01:47:53;97773.38;;;23.87;27.15
37291;BME280;23175;-33.706;151.094;2023-02-03T01:50:25;97777.35;;;22.10;28.98
37291;BME280;23175;-33.706;151.094;2023-02-03T01:53:00;97768.35;;;23.99;27.73
37291;BME280;23175;-33.706;151.094;2023-02-03T01:55:32;97777.74;;;21.62;29.45
37291;BME280;23175;-33.706;151.094;2023-02-03T01:58:05;97777.34;;;22.23;28.96
37291;BME280;23175;-33.706;151.094;2023-02-03T02:00:37;97778.31;;;23.20;27.98
37291;BME280;23175;-33.706;151.094;2023-02-03T02:03:06;97776.87;;;22.34;26.71
37291;BME280;23175;-33.706;151.094;2023-02-03T02:05:39;97764.62;;;24.85;25.37
37291;BME280;23175;-33.706;151.094;2023-02-03T02:08:12;97758.33;;;24.31;25.24
37291;BME280;23175;-33.706;151.094;2023-02-03T02:10:44;97752.97;;;25.20;25.47
37291;BME280;23175;-33.706;151.094;2023-02-03T02:13:13;97750.93;;;23.50;27.35
37291;BME280;23175;-33.706;151.094;2023-02-03T02:15:49;97750.11;;;23.59;27.52
37291;BME280;23175;-33.706;151.094;2023-02-03T02:18:35;97759.61;;;23.23;25.68
37291;BME280;23175;-33.706;151.094;2023-02-03T02:21:23;97755.72;;;22.48;26.86
37291;BME280;23175;-33.706;151.094;2023-02-03T02:24:11;97757.47;;;22.03;28.16
37291;BME280;23175;-33.706;151.094;2023-02-03T02:26:56;97751.51;;;22.18;27.04
37291;BME280;23175;-33.706;151.094;2023-02-03T02:31:55;97725.99;;;21.22;27.62
37291;BME280;23175;-33.706;151.094;2023-02-03T02:34:40;97740.09;;;23.45;26.96
37291;BME280;23175;-33.706;151.094;2023-02-03T02:37:23;97743.95;;;23.23;27.01
37291;BME280;23175;-33.706;151.094;2023-02-03T02:40:01;97745.08;;;23.16;27.46
37291;BME280;23175;-33.706;151.094;2023-02-03T02:42:38;97727.93;;;24.82;25.24
37291;BME280;23175;-33.706;151.094;2023-02-03T02:45:16;97733.21;;;24.66;25.54
37291;BME280;23175;-33.706;151.094;2023-02-03T02:47:46;97725.31;;;25.14;25.00
37291;BME280;23175;-33.706;151.094;2023-02-03T02:50:19;97728.32;;;25.99;23.14
37291;BME280;23175;-33.706;151.094;2023-02-03T02:52:51;97731.25;;;23.81;26.65
37291;BME280;23175;-33.706;151.094;2023-02-03T02:55:25;97731.71;;;22.94;26.13
37291;BME280;23175;-33.706;151.094;2023-02-03T02:57:56;97722.04;;;24.90;24.49
37291;BME280;23175;-33.706;151.094;2023-02-03T03:00:30;97718.44;;;23.55;24.66
37291;BME280;23175;-33.706;151.094;2023-02-03T03:03:11;97716.18;;;24.80;23.84
37291;BME280;23175;-33.706;151.094;2023-02-03T03:05:43;97716.75;;;25.66;22.29
37291;BME280;23175;-33.706;151.094;2023-02-03T03:08:18;97710.18;;;27.69;22.20
37291;BME280;23175;-33.706;151.094;2023-02-03T03:10:51;97703.46;;;23.15;23.35
37291;BME280;23175;-33.706;151.094;2023-02-03T03:13:24;97713.70;;;23.94;23.23
37291;BME280;23175;-33.706;151.094;2023-02-03T03:15:57;97713.81;;;23.70;23.63
37291;BME280;23175;-33.706;151.094;2023-02-03T03:18:30;97725.53;;;23.87;24.71
37291;BME280;23175;-33.706;151.094;2023-02-03T03:21:04;97719.92;;;23.66;23.61
37291;BME280;23175;-33.706;151.094;2023-02-03T03:23:37;97726.69;;;23.82;22.97
37291;BME280;23175;-33.706;151.094;2023-02-03T03:26:13;97725.36;;;24.19;22.73
37291;BME280;23175;-33.706;151.094;2023-02-03T03:28:47;97717.67;;;24.01;22.44
37291;BME280;23175;-33.706;151.094;2023-02-03T03:31:18;97718.56;;;24.68;22.20
37291;BME280;23175;-33.706;151.094;2023-02-03T03:33:48;97714.28;;;24.67;20.91
37291;BME280;23175;-33.706;151.094;2023-02-03T03:36:24;97717.44;;;24.44;21.63
37291;BME280;23175;-33.706;151.094;2023-02-03T03:39:00;97735.58;;;23.20;23.26
37291;BME280;23175;-33.706;151.094;2023-02-03T03:41:38;97729.74;;;24.24;22.35
37291;BME280;23175;-33.706;151.094;2023-02-03T03:44:13;97724.10;;;23.61;22.84
37291;BME280;23175;-33.706;151.094;2023-02-03T03:46:49;97713.35;;;23.72;22.12
37291;BME280;23175;-33.706;151.094;2023-02-03T03:49:20;97710.22;;;23.07;21.49
37291;BME280;23175;-33.706;151.094;2023-02-03T03:51:54;97708.71;;;24.27;21.41
37291;BME280;23175;-33.706;151.094;2023-02-03T03:54:26;97717.25;;;24.90;20.99
37291;BME280;23175;-33.706;151.094;2023-02-03T03:56:59;97704.28;;;25.22;22.02
37291;BME280;23175;-33.706;151.094;2023-02-03T03:59:31;97701.39;;;24.03;21.53
37291;BME280;23175;-33.706;151.094;2023-02-03T04:02:02;97707.89;;;23.42;22.28
37291;BME280;23175;-33.706;151.094;2023-02-03T04:04:34;97712.61;;;24.50;21.99
37291;BME280;23175;-33.706;151.094;2023-02-03T04:07:05;97712.81;;;23.59;22.53
37291;BME280;23175;-33.706;151.094;2023-02-03T04:09:34;97706.63;;;26.16;20.34
37291;BME280;23175;-33.706;151.094;2023-02-03T04:12:04;97709.14;;;24.10;21.96
37291;BME280;23175;-33.706;151.094;2023-02-03T04:14:35;97717.56;;;24.60;21.66
37291;BME280;23175;-33.706;151.094;2023-02-03T04:17:05;97711.21;;;26.07;19.25
37291;BME280;23175;-33.706;151.094;2023-02-03T04:19:35;97709.60;;;23.52;21.07
37291;BME280;23175;-33.706;151.094;2023-02-03T04:22:04;97713.61;;;25.01;20.35
37291;BME280;23175;-33.706;151.094;2023-02-03T04:24:34;97713.55;;;25.17;21.18
37291;BME280;23175;-33.706;151.094;2023-02-03T04:27:04;97708.57;;;24.48;20.15
37291;BME280;23175;-33.706;151.094;2023-02-03T04:29:33;97703.82;;;23.59;22.17
37291;BME280;23175;-33.706;151.094;2023-02-03T04:32:02;97707.58;;;24.65;21.39
37291;BME280;23175;-33.706;151.094;2023-02-03T04:34:31;97709.47;;;25.00;20.57
37291;BME280;23175;-33.706;151.094;2023-02-03T04:37:00;97710.96;;;24.19;21.88
37291;BME280;23175;-33.706;151.094;2023-02-03T04:39:30;97708.11;;;25.24;20.04
37291;BME280;23175;-33.706;151.094;2023-02-03T04:41:59;97706.18;;;26.25;20.10
37291;BME280;23175;-33.706;151.094;2023-02-03T04:44:29;97699.45;;;23.21;21.51
37291;BME280;23175;-33.706;151.094;2023-02-03T04:46:58;97694.57;;;24.37;20.83
37291;BME280;23175;-33.706;151.094;2023-02-03T04:49:27;97689.18;;;25.04;21.39
37291;BME280;23175;-33.706;151.094;2023-02-03T04:51:57;97694.60;;;24.95;21.88
37291;BME280;23175;-33.706;151.094;2023-02-03T04:54:26;97697.75;;;24.47;22.13
37291;BME280;23175;-33.706;151.094;2023-02-03T04:56:56;97699.58;;;25.84;21.06
37291;BME280;23175;-33.706;151.094;2023-02-03T04:59:25;97696.85;;;24.65;20.32
37291;BME280;23175;-33.706;151.094;2023-02-03T05:01:55;97699.84;;;25.84;20.24
37291;BME280;23175;-33.706;151.094;2023-02-03T05:04:25;97697.82;;;24.66;20.96
37291;BME280;23175;-33.706;151.094;2023-02-03T05:06:55;97701.61;;;27.10;19.80
37291;BME280;23175;-33.706;151.094;2023-02-03T05:09:25;97729.42;;;25.80;26.96
37291;BME280;23175;-33.706;151.094;2023-02-03T05:11:55;97732.12;;;26.38;27.93
37291;BME280;23175;-33.706;151.094;2023-02-03T05:14:24;97740.53;;;25.44;28.93
37291;BME280;23175;-33.706;151.094;2023-02-03T05:16:54;97748.81;;;24.70;30.30
37291;BME280;23175;-33.706;151.094;2023-02-03T05:19:24;97744.41;;;25.81;29.63
37291;BME280;23175;-33.706;151.094;2023-02-03T05:21:53;97748.75;;;25.60;30.24
37291;BME280;23175;-33.706;151.094;2023-02-03T05:24:22;97750.01;;;23.49;32.19
37291;BME280;23175;-33.706;151.094;2023-02-03T05:26:51;97741.70;;;24.30;31.39
37291;BME280;23175;-33.706;151.094;2023-02-03T05:29:21;97739.52;;;23.25;33.53
37291;BME280;23175;-33.706;151.094;2023-02-03T05:31:50;97736.40;;;24.19;32.81
37291;BME280;23175;-33.706;151.094;2023-02-03T05:34:21;97747.19;;;23.73;32.71
37291;BME280;23175;-33.706;151.094;2023-02-03T05:36:50;97758.90;;;21.99;34.93
37291;BME280;23175;-33.706;151.094;2023-02-03T05:39:20;97755.71;;;23.53;33.39
37291;BME280;23175;-33.706;151.094;2023-02-03T05:41:49;97760.50;;;22.99;33.27
37291;BME280;23175;-33.706;151.094;2023-02-03T05:44:18;97767.18;;;22.85;34.18
37291;BME280;23175;-33.706;151.094;2023-02-03T05:46:47;97771.28;;;23.32;34.05
37291;BME280;23175;-33.706;151.094;2023-02-03T05:49:17;97776.95;;;22.99;34.10
37291;BME280;23175;-33.706;151.094;2023-02-03T05:51:47;97778.62;;;23.44;34.48
37291;BME280;23175;-33.706;151.094;2023-02-03T05:54:16;97775.74;;;23.71;33.95
37291;BME280;23175;-33.706;151.094;2023-02-03T05:56:45;97780.51;;;23.61;33.39
37291;BME280;23175;-33.706;151.094;2023-02-03T05:59:15;97776.79;;;22.02;35.76
37291;BME280;23175;-33.706;151.094;2023-02-03T06:01:44;97778.94;;;22.80;34.30
37291;BME280;23175;-33.706;151.094;2023-02-03T06:04:13;97786.96;;;22.42;35.42
37291;BME280;23175;-33.706;151.094;2023-02-03T06:06:42;97788.06;;;22.31;34.78
37291;BME280;23175;-33.706;151.094;2023-02-03T06:09:12;97792.90;;;23.49;33.92
37291;BME280;23175;-33.706;151.094;2023-02-03T06:11:41;97797.99;;;24.57;32.51
37291;BME280;23175;-33.706;151.094;2023-02-03T06:14:10;97809.22;;;22.83;34.01
37291;BME280;23175;-33.706;151.094;2023-02-03T06:16:39;97810.27;;;20.95;36.22
37291;BME280;23175;-33.706;151.094;2023-02-03T06:19:09;97805.32;;;23.80;33.09
37291;BME280;23175;-33.706;151.094;2023-02-03T06:21:38;97807.48;;;22.05;35.22
37291;BME280;23175;-33.706;151.094;2023-02-03T06:24:07;97811.72;;;23.56;32.50
37291;BME280;23175;-33.706;151.094;2023-02-03T06:26:36;97807.16;;;22.29;34.43
37291;BME280;23175;-33.706;151.094;2023-02-03T06:29:05;97802.89;;;22.84;33.46
37291;BME280;23175;-33.706;151.094;2023-02-03T06:31:34;97807.60;;;22.31;34.53
37291;BME280;23175;-33.706;151.094;2023-02-03T06:34:03;97813.15;;;21.85;34.82
37291;BME280;23175;-33.706;151.094;2023-02-03T06:36:32;97818.92;;;21.46;35.07
37291;BME280;23175;-33.706;151.094;2023-02-03T06:39:02;97828.09;;;21.10;35.90
37291;BME280;23175;-33.706;151.094;2023-02-03T06:41:31;97835.92;;;22.02;34.92
37291;BME280;23175;-33.706;151.094;2023-02-03T06:44:00;97843.53;;;23.75;33.19
37291;BME280;23175;-33.706;151.094;2023-02-03T06:46:29;97846.01;;;21.14;35.09
37291;BME280;23175;-33.706;151.094;2023-02-03T06:48:58;97852.30;;;22.09;34.08
37291;BME280;23175;-33.706;151.094;2023-02-03T06:51:27;97858.22;;;22.40;33.86
37291;BME280;23175;-33.706;151.094;2023-02-03T06:53:57;97860.81;;;22.53;33.90
37291;BME280;23175;-33.706;151.094;2023-02-03T06:56:25;97859.00;;;22.76;34.15
37291;BME280;23175;-33.706;151.094;2023-02-03T06:58:55;97858.08;;;22.73;34.09
37291;BME280;23175;-33.706;151.094;2023-02-03T07:01:24;97860.41;;;22.77;33.83
37291;BME280;23175;-33.706;151.094;2023-02-03T07:03:54;97858.28;;;22.34;33.98
37291;BME280;23175;-33.706;151.094;2023-02-03T07:06:23;97858.34;;;22.68;33.87
37291;BME280;23175;-33.706;151.094;2023-02-03T07:08:53;97862.97;;;20.98;36.22
37291;BME280;23175;-33.706;151.094;2023-02-03T07:11:22;97866.58;;;23.12;34.97
37291;BME280;23175;-33.706;151.094;2023-02-03T07:13:52;97870.74;;;21.04;36.50
37291;BME280;23175;-33.706;151.094;2023-02-03T07:16:21;97878.60;;;23.22;33.65
37291;BME280;23175;-33.706;151.094;2023-02-03T07:18:50;97882.11;;;22.39;35.48
37291;BME280;23175;-33.706;151.094;2023-02-03T07:21:19;97889.27;;;22.38;35.30
37291;BME280;23175;-33.706;151.094;2023-02-03T07:23:49;97896.35;;;23.07;34.81
37291;BME280;23175;-33.706;151.094;2023-02-03T07:26:17;97902.74;;;22.21;35.58
37291;BME280;23175;-33.706;151.094;2023-02-03T07:28:46;97905.32;;;23.32;34.63
37291;BME280;23175;-33.706;151.094;2023-02-03T07:31:16;97906.32;;;21.94;36.58
37291;BME280;23175;-33.706;151.094;2023-02-03T07:33:45;97915.79;;;23.46;35.03
37291;BME280;23175;-33.706;151.094;2023-02-03T07:36:14;97922.60;;;21.94;36.53
37291;BME280;23175;-33.706;151.094;2023-02-03T07:38:43;97922.40;;;22.36;35.51
37291;BME280;23175;-33.706;151.094;2023-02-03T07:41:12;97930.75;;;21.06;37.71
37291;BME280;23175;-33.706;151.094;2023-02-03T07:43:41;97933.55;;;21.90;36.75
37291;BME280;23175;-33.706;151.094;2023-02-03T07:46:11;97939.95;;;22.53;36.97
37291;BME280;23175;-33.706;151.094;2023-02-03T07:48:40;97950.33;;;22.07;36.08
37291;BME280;23175;-33.706;151.094;2023-02-03T07:51:10;97948.34;;;20.93;38.26
37291;BME280;23175;-33.706;151.094;2023-02-03T07:53:39;97952.82;;;21.89;36.42
37291;BME280;23175;-33.706;151.094;2023-02-03T07:56:08;97957.86;;;20.26;38.18
37291;BME280;23175;-33.706;151.094;2023-02-03T07:58:37;97969.74;;;21.01;37.24
37291;BME280;23175;-33.706;151.094;2023-02-03T08:01:11;97971.35;;;21.99;36.30
37291;BME280;23175;-33.706;151.094;2023-02-03T08:03:42;97975.47;;;21.48;36.69
37291;BME280;23175;-33.706;151.094;2023-02-03T08:06:11;97979.56;;;20.77;38.05
37291;BME280;23175;-33.706;151.094;2023-02-03T08:08:40;97987.18;;;21.86;36.97
37291;BME280;23175;-33.706;151.094;2023-02-03T08:11:10;97993.92;;;21.67;36.47
37291;BME280;23175;-33.706;151.094;2023-02-03T08:13:39;97998.65;;;21.69;35.85
37291;BME280;23175;-33.706;151.094;2023-02-03T08:16:09;98012.42;;;21.39;36.10
37291;BME280;23175;-33.706;151.094;2023-02-03T08:18:38;98018.52;;;20.20;37.48
37291;BME280;23175;-33.706;151.094;2023-02-03T08:21:07;98024.13;;;22.80;34.69
37291;BME280;23175;-33.706;151.094;2023-02-03T08:23:37;98036.26;;;19.85;38.76
37291;BME280;23175;-33.706;151.094;2023-02-03T08:26:06;98035.84;;;22.29;35.84
37291;BME280;23175;-33.706;151.094;2023-02-03T08:28:36;98040.86;;;20.25;37.94
37291;BME280;23175;-33.706;151.094;2023-02-03T08:31:10;98043.16;;;22.74;35.15
37291;BME280;23175;-33.706;151.094;2023-02-03T08:33:40;98044.04;;;22.70;34.91
37291;BME280;23175;-33.706;151.094;2023-02-03T08:36:09;98050.47;;;22.14;35.66
37291;BME280;23175;-33.706;151.094;2023-02-03T08:38:38;98051.67;;;21.78;36.39
37291;BME280;23175;-33.706;151.094;2023-02-03T08:41:11;98057.55;;;24.04;33.07
37291;BME280;23175;-33.706;151.094;2023-02-03T08:43:41;98066.26;;;20.34;36.76
37291;BME280;23175;-33.706;151.094;2023-02-03T08:46:12;98065.90;;;21.33;36.24
37291;BME280;23175;-33.706;151.094;2023-02-03T08:48:41;98070.35;;;21.40;36.19
37291;BME280;23175;-33.706;151.094;2023-02-03T08:51:13;98073.31;;;22.95;33.85
37291;BME280;23175;-33.706;151.094;2023-02-03T08:53:44;98086.02;;;21.86;36.54
37291;BME280;23175;-33.706;151.094;2023-02-03T08:56:13;98094.05;;;21.77;35.19
37291;BME280;23175;-33.706;151.094;2023-02-03T08:58:43;98100.19;;;20.16;37.54
37291;BME280;23175;-33.706;151.094;2023-02-03T09:01:14;98104.73;;;22.28;35.05
37291;BME280;23175;-33.706;151.094;2023-02-03T09:03:44;98111.40;;;21.05;36.67
37291;BME280;23175;-33.706;151.094;2023-02-03T09:06:13;98114.37;;;21.97;35.13
37291;BME280;23175;-33.706;151.094;2023-02-03T09:08:43;98117.51;;;22.49;35.01
37291;BME280;23175;-33.706;151.094;2023-02-03T09:11:16;98122.02;;;23.12;33.65
37291;BME280;23175;-33.706;151.094;2023-02-03T09:13:46;98127.44;;;23.41;33.81
37291;BME280;23175;-33.706;151.094;2023-02-03T09:16:17;98134.43;;;22.53;34.57
37291;BME280;23175;-33.706;151.094;2023-02-03T09:18:48;98139.77;;;23.11;33.75
37291;BME280;23175;-33.706;151.094;2023-02-03T09:21:18;98135.48;;;23.99;32.79
37291;BME280;23175;-33.706;151.094;2023-02-03T09:23:47;98138.22;;;24.09;31.92
37291;BME280;23175;-33.706;151.094;2023-02-03T09:26:16;98147.17;;;21.09;35.17
37291;BME280;23175;-33.706;151.094;2023-02-03T09:28:45;98153.61;;;21.32;35.41
37291;BME280;23175;-33.706;151.094;2023-02-03T09:31:16;98159.09;;;22.44;34.48
37291;BME280;23175;-33.706;151.094;2023-02-03T09:33:45;98162.15;;;23.10;33.75
37291;BME280;23175;-33.706;151.094;2023-02-03T09:36:14;98163.50;;;23.72;33.36
37291;BME280;23175;-33.706;151.094;2023-02-03T09:38:44;98168.06;;;24.70;31.69
37291;BME280;23175;-33.706;151.094;2023-02-03T09:41:24;98178.83;;;24.92;31.19
37291;BME280;23175;-33.706;151.094;2023-02-03T09:44:03;98185.66;;;24.54;31.27
37291;BME280;23175;-33.706;151.094;2023-02-03T09:46:41;98190.28;;;23.96;32.03
37291;BME280;23175;-33.706;151.094;2023-02-03T09:49:16;98197.03;;;23.36;32.78
37291;BME280;23175;-33.706;151.094;2023-02-03T09:51:51;98208.51;;;21.51;34.24
37291;BME280;23175;-33.706;151.094;2023-02-03T09:54:25;98210.57;;;22.35;34.01
37291;BME280;23175;-33.706;151.094;2023-02-03T09:56:56;98215.23;;;23.04;33.48
37291;BME280;23175;-33.706;151.094;2023-02-03T09:59:27;98219.13;;;23.19;32.81
37291;BME280;23175;-33.706;151.094;2023-02-03T10:02:01;98227.29;;;23.44;32.67
37291;BME280;23175;-33.706;151.094;2023-02-03T10:04:37;98228.30;;;20.88;35.76
37291;BME280;23175;-33.706;151.094;2023-02-03T10:07:14;98233.92;;;22.55;34.43
37291;BME280;23175;-33.706;151.094;2023-02-03T10:09:52;98237.27;;;24.43;31.95
37291;BME280;23175;-33.706;151.094;2023-02-03T10:12:41;98239.30;;;24.84;31.79
37291;BME280;23175;-33.706;151.094;2023-02-03T10:15:26;98248.52;;;22.11;34.66
37291;BME280;23175;-33.706;151.094;2023-02-03T10:18:03;98249.67;;;24.35;31.41
37291;BME280;23175;-33.706;151.094;2023-02-03T10:20:37;98252.27;;;24.38;31.33
37291;BME280;23175;-33.706;151.094;2023-02-03T10:23:13;98256.95;;;25.10;31.08
37291;BME280;23175;-33.706;151.094;2023-02-03T10:25:46;98257.95;;;23.82;32.85
37291;BME280;23175;-33.706;151.094;2023-02-03T10:28:19;98262.82;;;25.14;31.27
37291;BME280;23175;-33.706;151.094;2023-02-03T10:30:53;98263.78;;;24.58;32.21
37291;BME280;23175;-33.706;151.094;2023-02-03T10:33:26;98270.32;;;22.42;34.11
37291;BME280;23175;-33.706;151.094;2023-02-03T10:36:03;98275.97;;;22.39;34.56
37291;BME280;23175;-33.706;151.094;2023-02-03T10:38:44;98273.52;;;25.30;30.73
37291;BME280;23175;-33.706;151.094;2023-02-03T10:41:19;98277.76;;;23.11;32.86
37291;BME280;23175;-33.706;151.094;2023-02-03T10:43:50;98278.28;;;23.94;31.78
37291;BME280;23175;-33.706;151.094;2023-02-03T10:46:25;98284.92;;;23.39;32.66
37291;BME280;23175;-33.706;151.094;2023-02-03T10:48:55;98290.53;;;24.89;32.08
37291;BME280;23175;-33.706;151.094;2023-02-03T10:51:27;98295.32;;;25.47;31.82
37291;BME280;23175;-33.706;151.094;2023-02-03T10:53:57;98295.56;;;24.89;32.37
37291;BME280;23175;-33.706;151.094;2023-02-03T10:56:29;98295.72;;;24.30;33.59
37291;BME280;23175;-33.706;151.094;2023-02-03T10:59:00;98294.31;;;24.11;32.51
37291;BME280;23175;-33.706;151.094;2023-02-03T11:01:41;98300.51;;;24.59;32.14
37291;BME280;23175;-33.706;151.094;2023-02-03T11:04:24;98302.29;;;24.14;32.17
37291;BME280;23175;-33.706;151.094;2023-02-03T11:06:57;98303.02;;;25.33;30.96
37291;BME280;23175;-33.706;151.094;2023-02-03T11:09:32;98312.33;;;25.66;31.41
37291;BME280;23175;-33.706;151.094;2023-02-03T11:12:09;98312.31;;;25.11;31.40
37291;BME280;23175;-33.706;151.094;2023-02-03T11:14:41;98315.30;;;25.72;32.10
37291;BME280;23175;-33.706;151.094;2023-02-03T11:17:16;98314.34;;;25.56;31.98
37291;BME280;23175;-33.706;151.094;2023-02-03T11:19:48;98313.87;;;22.26;34.83
37291;BME280;23175;-33.706;151.094;2023-02-03T11:22:28;98310.06;;;22.82;35.23
37291;BME280;23175;-33.706;151.094;2023-02-03T11:24:59;98306.95;;;23.06;33.66
37291;BME280;23175;-33.706;151.094;2023-02-03T11:27:30;98315.94;;;24.56;32.20
37291;BME280;23175;-33.706;151.094;2023-02-03T11:30:13;98320.92;;;24.88;31.54
37291;BME280;23175;-33.706;151.094;2023-02-03T11:32:43;98319.68;;;23.66;32.84
37291;BME280;23175;-33.706;151.094;2023-02-03T11:35:18;98321.55;;;24.54;31.68
37291;BME280;23175;-33.706;151.094;2023-02-03T11:37:50;98326.92;;;24.95;32.98
37291;BME280;23175;-33.706;151.094;2023-02-03T11:40:26;98327.85;;;25.30;32.46
37291;BME280;23175;-33.706;151.094;2023-02-03T11:43:16;98322.66;;;25.46;31.69
37291;BME280;23175;-33.706;151.094;2023-02-03T11:45:48;98321.47;;;24.95;32.28
37291;BME280;23175;-33.706;151.094;2023-02-03T11:48:26;98338.72;;;24.98;32.47
37291;BME280;23175;-33.706;151.094;2023-02-03T11:51:06;98349.57;;;25.20;32.99
37291;BME280;23175;-33.706;151.094;2023-02-03T11:53:52;98345.45;;;23.12;34.77
37291;BME280;23175;-33.706;151.094;2023-02-03T11:56:31;98344.85;;;23.84;33.28
37291;BME280;23175;-33.706;151.094;2023-02-03T11:59:13;98347.53;;;22.64;34.61
37291;BME280;23175;-33.706;151.094;2023-02-03T12:02:02;98341.74;;;24.55;32.63
37291;BME280;23175;-33.706;151.094;2023-02-03T12:04:48;98339.08;;;23.90;32.89
37291;BME280;23175;-33.706;151.094;2023-02-03T12:07:36;98333.05;;;24.43;32.58
37291;BME280;23175;-33.706;151.094;2023-02-03T12:10:16;98330.20;;;24.81;32.09
37291;BME280;23175;-33.706;151.094;2023-02-03T12:12:56;98342.46;;;24.52;32.71
37291;BME280;23175;-33.706;151.094;2023-02-03T12:15:49;98349.31;;;19.81;37.84
37291;BME280;23175;-33.706;151.094;2023-02-03T12:18:37;98348.41;;;18.69;39.76
37291;BME280;23175;-33.706;151.094;2023-02-03T12:21:26;98341.32;;;20.82;37.63
37291;BME280;23175;-33.706;151.094;2023-02-03T12:24:05;98348.74;;;22.55;37.89
37291;BME280;23175;-33.706;151.094;2023-02-03T12:26:44;98350.99;;;23.79;36.71
37291;BME280;23175;-33.706;151.094;2023-02-03T12:29:17;98352.85;;;23.78;35.15
37291;BME280;23175;-33.706;151.094;2023-02-03T12:31:54;98357.53;;;24.68;35.25
37291;BME280;23175;-33.706;151.094;2023-02-03T12:34:31;98361.41;;;20.72;40.06
37291;BME280;23175;-33.706;151.094;2023-02-03T12:37:05;98366.31;;;18.26;43.86
37291;BME280;23175;-33.706;151.094;2023-02-03T12:39:39;98367.22;;;19.49;41.35
37291;BME280;23175;-33.706;151.094;2023-02-03T12:42:16;98365.28;;;23.01;37.46
37291;BME280;23175;-33.706;151.094;2023-02-03T12:44:51;98371.35;;;22.58;38.60
37291;BME280;23175;-33.706;151.094;2023-02-03T12:47:28;98365.19;;;21.73;39.42
37291;BME280;23175;-33.706;151.094;2023-02-03T12:50:04;98357.97;;;23.96;36.27
37291;BME280;23175;-33.706;151.094;2023-02-03T12:52:39;98354.83;;;23.28;36.64
37291;BME280;23175;-33.706;151.094;2023-02-03T12:55:22;98356.14;;;22.10;38.06
37291;BME280;23175;-33.706;151.094;2023-02-03T12:57:59;98361.22;;;23.89;35.48